sensor_id;sensor_type;location;lat;lon;timestamp;temperature;humidity
46488;DHT22;32202;48.780;9.204;2022-09-02T00:01:50;16.10;93.60
46488;DHT22;32202;48.780;9.204;2022-09-02T00:04:28;16.10;93.50
46488;DHT22;32202;48.780;9.204;2022-09-02T00:06:54;16.10;94.10
46488;DHT22;32202;48.780;9.204;2022-09-02T00:09:22;16.10;93.70
46488;DHT22;32202;48.780;9.204;2022-09-02T00:11:49;16.00;94.40
46488;DHT22;32202;48.780;9.204;2022-09-02T00:14:20;16.00;94.50
46488;DHT22;32202;48.780;9.204;2022-09-02T00:16:46;16.00;95.10
46488;DHT22;32202;48.780;9.204;2022-09-02T00:19:16;15.90;94.60
46488;DHT22;32202;48.780;9.204;2022-09-02T00:21:43;15.80;94.20
46488;DHT22;32202;48.780;9.204;2022-09-02T00:24:09;15.70;94.20
46488;DHT22;32202;48.780;9.204;2022-09-02T00:26:34;15.70;94.50
46488;DHT22;32202;48.780;9.204;2022-09-02T00:29:00;15.60;94.80
46488;DHT22;32202;48.780;9.204;2022-09-02T00:31:26;15.60;95.10
46488;DHT22;32202;48.780;9.204;2022-09-02T00:33:53;15.50;95.60
46488;DHT22;32202;48.780;9.204;2022-09-02T00:36:19;15.50;96.10
46488;DHT22;32202;48.780;9.204;2022-09-02T00:38:45;15.50;96.40
46488;DHT22;32202;48.780;9.204;2022-09-02T00:41:12;15.50;96.70
46488;DHT22;32202;48.780;9.204;2022-09-02T00:46:07;15.50;96.70
46488;DHT22;32202;48.780;9.204;2022-09-02T00:48:33;15.50;97.00
46488;DHT22;32202;48.780;9.204;2022-09-02T00:51:00;15.50;96.90
46488;DHT22;32202;48.780;9.204;2022-09-02T00:53:27;15.50;96.90
46488;DHT22;32202;48.780;9.204;2022-09-02T00:55:53;15.50;96.60
46488;DHT22;32202;48.780;9.204;2022-09-02T00:58:30;15.40;96.20
46488;DHT22;32202;48.780;9.204;2022-09-02T01:00:58;15.40;96.00
46488;DHT22;32202;48.780;9.204;2022-09-02T01:03:27;15.30;96.10
46488;DHT22;32202;48.780;9.204;2022-09-02T01:05:54;15.30;96.80
46488;DHT22;32202;48.780;9.204;2022-09-02T01:08:24;15.20;97.30
46488;DHT22;32202;48.780;9.204;2022-09-02T01:10:51;15.20;97.40
46488;DHT22;32202;48.780;9.204;2022-09-02T01:13:22;15.20;97.40
46488;DHT22;32202;48.780;9.204;2022-09-02T01:15:55;15.20;97.40
46488;DHT22;32202;48.780;9.204;2022-09-02T01:18:25;15.10;97.50
46488;DHT22;32202;48.780;9.204;2022-09-02T01:20:54;15.10;98.30
46488;DHT22;32202;48.780;9.204;2022-09-02T01:23:20;15.10;98.50
46488;DHT22;32202;48.780;9.204;2022-09-02T01:25:46;15.10;98.00
46488;DHT22;32202;48.780;9.204;2022-09-02T01:28:14;15.10;98.30
46488;DHT22;32202;48.780;9.204;2022-09-02T01:30:44;15.10;98.20
46488;DHT22;32202;48.780;9.204;2022-09-02T01:33:09;15.00;98.50
46488;DHT22;32202;48.780;9.204;2022-09-02T01:35:36;15.00;98.60
46488;DHT22;32202;48.780;9.204;2022-09-02T01:38:01;15.00;98.30
46488;DHT22;32202;48.780;9.204;2022-09-02T01:40:29;15.00;98.50
46488;DHT22;32202;48.780;9.204;2022-09-02T01:43:07;14.90;97.80
46488;DHT22;32202;48.780;9.204;2022-09-02T01:45:38;14.90;97.90
46488;DHT22;32202;48.780;9.204;2022-09-02T01:48:05;14.80;97.90
46488;DHT22;32202;48.780;9.204;2022-09-02T01:50:31;14.80;97.60
46488;DHT22;32202;48.780;9.204;2022-09-02T01:52:59;14.80;97.70
46488;DHT22;32202;48.780;9.204;2022-09-02T01:55:26;14.80;97.50
46488;DHT22;32202;48.780;9.204;2022-09-02T01:57:51;14.70;97.50
46488;DHT22;32202;48.780;9.204;2022-09-02T02:00:17;14.80;96.60
46488;DHT22;32202;48.780;9.204;2022-09-02T02:02:43;14.80;96.20
46488;DHT22;32202;48.780;9.204;2022-09-02T02:05:09;14.80;95.70
46488;DHT22;32202;48.780;9.204;2022-09-02T02:07:35;14.80;95.70
46488;DHT22;32202;48.780;9.204;2022-09-02T02:10:01;14.70;96.00
46488;DHT22;32202;48.780;9.204;2022-09-02T02:12:28;14.80;96.00
46488;DHT22;32202;48.780;9.204;2022-09-02T02:14:54;14.80;95.80
46488;DHT22;32202;48.780;9.204;2022-09-02T02:17:19;14.70;96.00
46488;DHT22;32202;48.780;9.204;2022-09-02T02:19:45;14.70;95.50
46488;DHT22;32202;48.780;9.204;2022-09-02T02:22:10;14.70;94.70
46488;DHT22;32202;48.780;9.204;2022-09-02T02:24:38;14.60;95.00
46488;DHT22;32202;48.780;9.204;2022-09-02T02:27:04;14.60;95.30
46488;DHT22;32202;48.780;9.204;2022-09-02T02:29:30;14.60;95.30
46488;DHT22;32202;48.780;9.204;2022-09-02T02:31:55;14.60;95.80
46488;DHT22;32202;48.780;9.204;2022-09-02T02:34:21;14.50;95.40
46488;DHT22;32202;48.780;9.204;2022-09-02T02:36:47;14.50;95.70
46488;DHT22;32202;48.780;9.204;2022-09-02T02:39:12;14.50;96.00
46488;DHT22;32202;48.780;9.204;2022-09-02T02:41:39;14.50;96.40
46488;DHT22;32202;48.780;9.204;2022-09-02T02:44:05;14.50;96.70
46488;DHT22;32202;48.780;9.204;2022-09-02T02:46:31;14.40;97.10
46488;DHT22;32202;48.780;9.204;2022-09-02T02:49:00;14.40;97.30
46488;DHT22;32202;48.780;9.204;2022-09-02T02:51:25;14.40;97.00
46488;DHT22;32202;48.780;9.204;2022-09-02T02:53:51;14.40;97.20
46488;DHT22;32202;48.780;9.204;2022-09-02T02:56:17;14.40;97.50
46488;DHT22;32202;48.780;9.204;2022-09-02T02:58:42;14.40;97.20
46488;DHT22;32202;48.780;9.204;2022-09-02T03:01:08;14.40;97.40
46488;DHT22;32202;48.780;9.204;2022-09-02T03:03:33;14.30;97.40
46488;DHT22;32202;48.780;9.204;2022-09-02T03:05:59;14.30;97.80
46488;DHT22;32202;48.780;9.204;2022-09-02T03:08:25;14.30;98.30
46488;DHT22;32202;48.780;9.204;2022-09-02T03:10:52;14.30;98.20
46488;DHT22;32202;48.780;9.204;2022-09-02T03:13:19;14.30;98.10
46488;DHT22;32202;48.780;9.204;2022-09-02T03:15:46;14.30;98.50
46488;DHT22;32202;48.780;9.204;2022-09-02T03:18:12;14.20;98.80
46488;DHT22;32202;48.780;9.204;2022-09-02T03:20:39;14.20;98.80
46488;DHT22;32202;48.780;9.204;2022-09-02T03:23:04;14.20;99.70
46488;DHT22;32202;48.780;9.204;2022-09-02T03:25:31;14.20;99.40
46488;DHT22;32202;48.780;9.204;2022-09-02T03:27:58;14.20;99.80
46488;DHT22;32202;48.780;9.204;2022-09-02T03:30:25;14.20;99.50
46488;DHT22;32202;48.780;9.204;2022-09-02T03:32:53;14.10;99.80
46488;DHT22;32202;48.780;9.204;2022-09-02T03:35:20;14.10;99.80
46488;DHT22;32202;48.780;9.204;2022-09-02T03:37:47;14.10;99.90
46488;DHT22;32202;48.780;9.204;2022-09-02T03:40:17;14.10;99.90
46488;DHT22;32202;48.780;9.204;2022-09-02T03:42:43;14.00;99.90
46488;DHT22;32202;48.780;9.204;2022-09-02T03:45:10;14.00;99.90
46488;DHT22;32202;48.780;9.204;2022-09-02T03:47:36;14.00;99.90
46488;DHT22;32202;48.780;9.204;2022-09-02T03:50:02;13.90;99.90
46488;DHT22;32202;48.780;9.204;2022-09-02T03:52:28;14.00;99.90
46488;DHT22;32202;48.780;9.204;2022-09-02T03:54:54;13.90;99.90
46488;DHT22;32202;48.780;9.204;2022-09-02T03:57:20;13.90;99.90
46488;DHT22;32202;48.780;9.204;2022-09-02T03:59:51;13.90;99.90
46488;DHT22;32202;48.780;9.204;2022-09-02T04:02:17;13.80;99.90
46488;DHT22;32202;48.780;9.204;2022-09-02T04:04:43;13.90;99.90
46488;DHT22;32202;48.780;9.204;2022-09-02T04:07:09;13.90;99.90
46488;DHT22;32202;48.780;9.204;2022-09-02T04:09:35;13.80;99.90
46488;DHT22;32202;48.780;9.204;2022-09-02T04:12:02;13.90;99.90
46488;DHT22;32202;48.780;9.204;2022-09-02T04:14:28;13.80;99.90
46488;DHT22;32202;48.780;9.204;2022-09-02T04:16:54;13.80;99.90
46488;DHT22;32202;48.780;9.204;2022-09-02T04:19:19;13.80;99.90
46488;DHT22;32202;48.780;9.204;2022-09-02T04:21:45;13.70;99.90
46488;DHT22;32202;48.780;9.204;2022-09-02T04:24:11;13.70;99.90
46488;DHT22;32202;48.780;9.204;2022-09-02T04:26:37;13.70;99.90
46488;DHT22;32202;48.780;9.204;2022-09-02T04:29:04;13.70;99.90
46488;DHT22;32202;48.780;9.204;2022-09-02T04:31:30;13.70;99.90
46488;DHT22;32202;48.780;9.204;2022-09-02T04:33:57;13.70;99.90
46488;DHT22;32202;48.780;9.204;2022-09-02T04:36:23;13.70;99.90
46488;DHT22;32202;48.780;9.204;2022-09-02T04:38:49;13.60;99.90
46488;DHT22;32202;48.780;9.204;2022-09-02T04:41:19;13.70;99.90
46488;DHT22;32202;48.780;9.204;2022-09-02T04:43:47;13.60;99.90
46488;DHT22;32202;48.780;9.204;2022-09-02T04:46:14;13.70;99.90
46488;DHT22;32202;48.780;9.204;2022-09-02T04:48:41;13.70;99.90
46488;DHT22;32202;48.780;9.204;2022-09-02T04:51:09;13.70;99.90
46488;DHT22;32202;48.780;9.204;2022-09-02T04:53:36;13.70;99.90
46488;DHT22;32202;48.780;9.204;2022-09-02T04:56:07;13.70;99.90
46488;DHT22;32202;48.780;9.204;2022-09-02T04:58:34;13.70;99.90
46488;DHT22;32202;48.780;9.204;2022-09-02T05:01:08;13.80;99.90
46488;DHT22;32202;48.780;9.204;2022-09-02T05:03:35;14.10;99.90
46488;DHT22;32202;48.780;9.204;2022-09-02T05:06:03;14.40;99.90
46488;DHT22;32202;48.780;9.204;2022-09-02T05:08:29;14.80;99.10
46488;DHT22;32202;48.780;9.204;2022-09-02T05:10:55;15.20;97.30
46488;DHT22;32202;48.780;9.204;2022-09-02T05:13:21;15.80;94.50
46488;DHT22;32202;48.780;9.204;2022-09-02T05:15:48;16.20;92.50
46488;DHT22;32202;48.780;9.204;2022-09-02T05:18:14;16.50;90.90
46488;DHT22;32202;48.780;9.204;2022-09-02T05:20:40;16.70;90.20
46488;DHT22;32202;48.780;9.204;2022-09-02T05:23:11;16.90;88.80
46488;DHT22;32202;48.780;9.204;2022-09-02T05:25:38;17.20;86.70
46488;DHT22;32202;48.780;9.204;2022-09-02T05:28:04;17.60;83.30
46488;DHT22;32202;48.780;9.204;2022-09-02T05:30:30;18.10;80.60
46488;DHT22;32202;48.780;9.204;2022-09-02T05:32:57;18.90;76.80
46488;DHT22;32202;48.780;9.204;2022-09-02T05:35:23;19.60;73.10
46488;DHT22;32202;48.780;9.204;2022-09-02T05:37:48;20.40;69.20
46488;DHT22;32202;48.780;9.204;2022-09-02T05:40:14;21.30;65.90
46488;DHT22;32202;48.780;9.204;2022-09-02T05:42:39;22.20;63.00
46488;DHT22;32202;48.780;9.204;2022-09-02T05:45:06;23.00;60.40
46488;DHT22;32202;48.780;9.204;2022-09-02T05:47:34;23.70;58.00
46488;DHT22;32202;48.780;9.204;2022-09-02T05:50:00;24.30;56.00
46488;DHT22;32202;48.780;9.204;2022-09-02T05:52:28;24.80;54.20
46488;DHT22;32202;48.780;9.204;2022-09-02T05:54:54;25.40;53.00
46488;DHT22;32202;48.780;9.204;2022-09-02T05:57:20;25.90;51.90
46488;DHT22;32202;48.780;9.204;2022-09-02T05:59:46;26.40;51.00
46488;DHT22;32202;48.780;9.204;2022-09-02T06:02:15;27.00;50.00
46488;DHT22;32202;48.780;9.204;2022-09-02T06:04:46;27.60;48.70
46488;DHT22;32202;48.780;9.204;2022-09-02T06:07:14;28.10;47.80
46488;DHT22;32202;48.780;9.204;2022-09-02T06:09:41;28.60;46.70
46488;DHT22;32202;48.780;9.204;2022-09-02T06:12:09;28.90;45.70
46488;DHT22;32202;48.780;9.204;2022-09-02T06:14:34;29.30;45.10
46488;DHT22;32202;48.780;9.204;2022-09-02T06:17:02;29.80;44.50
46488;DHT22;32202;48.780;9.204;2022-09-02T06:19:28;30.30;43.60
46488;DHT22;32202;48.780;9.204;2022-09-02T06:21:55;30.80;42.90
46488;DHT22;32202;48.780;9.204;2022-09-02T06:24:22;31.30;42.20
46488;DHT22;32202;48.780;9.204;2022-09-02T06:26:48;31.70;41.40
46488;DHT22;32202;48.780;9.204;2022-09-02T06:29:14;32.10;40.90
46488;DHT22;32202;48.780;9.204;2022-09-02T06:31:42;32.40;40.30
46488;DHT22;32202;48.780;9.204;2022-09-02T06:34:09;32.80;39.70
46488;DHT22;32202;48.780;9.204;2022-09-02T06:36:36;33.00;38.80
46488;DHT22;32202;48.780;9.204;2022-09-02T06:39:02;32.90;39.30
46488;DHT22;32202;48.780;9.204;2022-09-02T06:41:31;33.00;38.70
46488;DHT22;32202;48.780;9.204;2022-09-02T06:44:01;32.90;39.00
46488;DHT22;32202;48.780;9.204;2022-09-02T06:46:29;33.10;38.50
46488;DHT22;32202;48.780;9.204;2022-09-02T06:48:55;33.50;38.30
46488;DHT22;32202;48.780;9.204;2022-09-02T06:51:24;34.20;37.70
46488;DHT22;32202;48.780;9.204;2022-09-02T06:53:50;34.90;36.90
46488;DHT22;32202;48.780;9.204;2022-09-02T06:56:17;35.50;36.40
46488;DHT22;32202;48.780;9.204;2022-09-02T06:58:43;36.00;35.70
46488;DHT22;32202;48.780;9.204;2022-09-02T07:01:08;36.40;35.10
46488;DHT22;32202;48.780;9.204;2022-09-02T07:03:35;36.90;34.80
46488;DHT22;32202;48.780;9.204;2022-09-02T07:06:19;37.20;34.30
46488;DHT22;32202;48.780;9.204;2022-09-02T07:08:46;37.60;34.20
46488;DHT22;32202;48.780;9.204;2022-09-02T07:11:20;37.80;33.80
46488;DHT22;32202;48.780;9.204;2022-09-02T07:13:46;37.80;33.60
46488;DHT22;32202;48.780;9.204;2022-09-02T07:16:12;37.70;33.80
46488;DHT22;32202;48.780;9.204;2022-09-02T07:18:38;37.80;33.90
46488;DHT22;32202;48.780;9.204;2022-09-02T07:21:04;38.10;33.50
46488;DHT22;32202;48.780;9.204;2022-09-02T07:23:32;38.30;33.40
46488;DHT22;32202;48.780;9.204;2022-09-02T07:25:58;38.70;33.00
46488;DHT22;32202;48.780;9.204;2022-09-02T07:28:23;38.70;33.20
46488;DHT22;32202;48.780;9.204;2022-09-02T07:30:49;39.00;32.80
46488;DHT22;32202;48.780;9.204;2022-09-02T07:33:18;39.00;32.80
46488;DHT22;32202;48.780;9.204;2022-09-02T07:35:45;39.10;33.50
46488;DHT22;32202;48.780;9.204;2022-09-02T07:38:11;39.20;32.80
46488;DHT22;32202;48.780;9.204;2022-09-02T07:40:39;39.10;32.50
46488;DHT22;32202;48.780;9.204;2022-09-02T07:43:07;39.40;32.40
46488;DHT22;32202;48.780;9.204;2022-09-02T07:45:33;39.70;32.20
46488;DHT22;32202;48.780;9.204;2022-09-02T07:48:01;39.80;32.00
46488;DHT22;32202;48.780;9.204;2022-09-02T07:50:27;38.90;32.40
46488;DHT22;32202;48.780;9.204;2022-09-02T07:52:56;39.50;32.30
46488;DHT22;32202;48.780;9.204;2022-09-02T07:55:22;39.90;31.90
46488;DHT22;32202;48.780;9.204;2022-09-02T07:57:48;40.40;31.40
46488;DHT22;32202;48.780;9.204;2022-09-02T08:00:16;40.80;31.50
46488;DHT22;32202;48.780;9.204;2022-09-02T08:02:42;41.20;31.20
46488;DHT22;32202;48.780;9.204;2022-09-02T08:05:09;41.90;30.80
46488;DHT22;32202;48.780;9.204;2022-09-02T08:07:35;41.30;30.50
46488;DHT22;32202;48.780;9.204;2022-09-02T08:10:03;41.30;30.80
46488;DHT22;32202;48.780;9.204;2022-09-02T08:12:29;40.70;31.10
46488;DHT22;32202;48.780;9.204;2022-09-02T08:14:55;41.00;30.90
46488;DHT22;32202;48.780;9.204;2022-09-02T08:17:22;40.80;30.50
46488;DHT22;32202;48.780;9.204;2022-09-02T08:19:48;41.00;30.70
46488;DHT22;32202;48.780;9.204;2022-09-02T08:22:13;40.40;30.10
46488;DHT22;32202;48.780;9.204;2022-09-02T08:24:39;38.50;31.30
46488;DHT22;32202;48.780;9.204;2022-09-02T08:27:05;37.90;31.70
46488;DHT22;32202;48.780;9.204;2022-09-02T08:29:31;38.50;31.40
46488;DHT22;32202;48.780;9.204;2022-09-02T08:31:56;37.80;31.40
46488;DHT22;32202;48.780;9.204;2022-09-02T08:34:22;38.30;31.40
46488;DHT22;32202;48.780;9.204;2022-09-02T08:36:48;37.10;32.10
46488;DHT22;32202;48.780;9.204;2022-09-02T08:39:13;37.40;32.00
46488;DHT22;32202;48.780;9.204;2022-09-02T08:42:06;38.10;31.70
46488;DHT22;32202;48.780;9.204;2022-09-02T08:44:35;39.80;30.60
46488;DHT22;32202;48.780;9.204;2022-09-02T08:47:05;39.70;30.60
46488;DHT22;32202;48.780;9.204;2022-09-02T08:49:39;40.70;30.10
46488;DHT22;32202;48.780;9.204;2022-09-02T08:52:06;41.40;30.30
46488;DHT22;32202;48.780;9.204;2022-09-02T08:54:53;40.50;30.00
46488;DHT22;32202;48.780;9.204;2022-09-02T08:57:23;39.30;30.20
46488;DHT22;32202;48.780;9.204;2022-09-02T08:59:51;40.00;30.50
46488;DHT22;32202;48.780;9.204;2022-09-02T09:02:31;40.70;29.80
46488;DHT22;32202;48.780;9.204;2022-09-02T09:13:11;42.60;29.10
46488;DHT22;32202;48.780;9.204;2022-09-02T09:18:16;43.80;28.60
46488;DHT22;32202;48.780;9.204;2022-09-02T09:20:42;41.60;29.00
46488;DHT22;32202;48.780;9.204;2022-09-02T09:23:26;41.40;29.40
46488;DHT22;32202;48.780;9.204;2022-09-02T09:25:58;42.10;29.30
46488;DHT22;32202;48.780;9.204;2022-09-02T09:28:29;41.90;28.90
46488;DHT22;32202;48.780;9.204;2022-09-02T09:30:58;40.40;29.30
46488;DHT22;32202;48.780;9.204;2022-09-02T09:33:24;40.20;29.50
46488;DHT22;32202;48.780;9.204;2022-09-02T09:35:52;39.30;29.60
46488;DHT22;32202;48.780;9.204;2022-09-02T09:38:30;38.30;30.00
46488;DHT22;32202;48.780;9.204;2022-09-02T09:41:20;39.30;29.60
46488;DHT22;32202;48.780;9.204;2022-09-02T09:43:47;37.50;30.20
46488;DHT22;32202;48.780;9.204;2022-09-02T09:46:27;38.00;30.40
46488;DHT22;32202;48.780;9.204;2022-09-02T09:48:54;39.90;29.80
46488;DHT22;32202;48.780;9.204;2022-09-02T09:51:19;41.90;28.90
46488;DHT22;32202;48.780;9.204;2022-09-02T09:53:45;43.00;28.30
46488;DHT22;32202;48.780;9.204;2022-09-02T10:01:30;44.30;27.90
46488;DHT22;32202;48.780;9.204;2022-09-02T10:04:05;45.00;27.80
46488;DHT22;32202;48.780;9.204;2022-09-02T10:08:58;42.50;27.80
46488;DHT22;32202;48.780;9.204;2022-09-02T10:11:30;42.10;27.90
46488;DHT22;32202;48.780;9.204;2022-09-02T10:14:08;42.50;28.00
46488;DHT22;32202;48.780;9.204;2022-09-02T10:16:41;41.00;27.80
46488;DHT22;32202;48.780;9.204;2022-09-02T10:19:32;41.00;28.30
46488;DHT22;32202;48.780;9.204;2022-09-02T10:27:16;42.00;27.30
46488;DHT22;32202;48.780;9.204;2022-09-02T10:29:56;41.10;27.80
46488;DHT22;32202;48.780;9.204;2022-09-02T10:32:45;41.40;27.40
46488;DHT22;32202;48.780;9.204;2022-09-02T10:49:44;38.40;28.50
46488;DHT22;32202;48.780;9.204;2022-09-02T10:52:29;38.60;28.50
46488;DHT22;32202;48.780;9.204;2022-09-02T10:57:58;38.10;28.60
46488;DHT22;32202;48.780;9.204;2022-09-02T11:00:25;36.50;29.50
46488;DHT22;32202;48.780;9.204;2022-09-02T11:05:47;38.90;28.90
46488;DHT22;32202;48.780;9.204;2022-09-02T11:11:31;41.90;28.10
46488;DHT22;32202;48.780;9.204;2022-09-02T11:16:49;44.30;27.40
46488;DHT22;32202;48.780;9.204;2022-09-02T11:19:21;44.50;27.20
46488;DHT22;32202;48.780;9.204;2022-09-02T11:22:48;45.50;27.10
46488;DHT22;32202;48.780;9.204;2022-09-02T11:24:59;45.10;26.90
46488;DHT22;32202;48.780;9.204;2022-09-02T11:27:42;45.80;26.90
46488;DHT22;32202;48.780;9.204;2022-09-02T11:30:14;46.00;26.80
46488;DHT22;32202;48.780;9.204;2022-09-02T11:32:58;44.60;27.00
46488;DHT22;32202;48.780;9.204;2022-09-02T11:35:29;44.70;26.80
46488;DHT22;32202;48.780;9.204;2022-09-02T11:43:52;43.00;27.30
46488;DHT22;32202;48.780;9.204;2022-09-02T11:46:31;43.70;27.50
46488;DHT22;32202;48.780;9.204;2022-09-02T11:49:21;44.70;27.00
46488;DHT22;32202;48.780;9.204;2022-09-02T11:54:35;45.70;27.10
46488;DHT22;32202;48.780;9.204;2022-09-02T11:57:04;45.70;26.70
46488;DHT22;32202;48.780;9.204;2022-09-02T12:02:31;46.20;26.90
46488;DHT22;32202;48.780;9.204;2022-09-02T12:21:20;45.00;26.80
46488;DHT22;32202;48.780;9.204;2022-09-02T12:31:45;44.70;26.90
46488;DHT22;32202;48.780;9.204;2022-09-02T12:42:18;42.20;27.40
46488;DHT22;32202;48.780;9.204;2022-09-02T12:56:00;38.90;28.50
46488;DHT22;32202;48.780;9.204;2022-09-02T12:58:37;39.00;28.70
46488;DHT22;32202;48.780;9.204;2022-09-02T13:06:58;37.20;29.70
46488;DHT22;32202;48.780;9.204;2022-09-02T13:12:21;38.70;29.40
46488;DHT22;32202;48.780;9.204;2022-09-02T13:15:04;36.90;29.60
46488;DHT22;32202;48.780;9.204;2022-09-02T13:20:56;35.60;31.10
46488;DHT22;32202;48.780;9.204;2022-09-02T13:23:47;37.90;30.00
46488;DHT22;32202;48.780;9.204;2022-09-02T13:29:28;40.50;28.80
46488;DHT22;32202;48.780;9.204;2022-09-02T13:32:27;38.60;29.70
46488;DHT22;32202;48.780;9.204;2022-09-02T13:34:56;37.20;30.00
46488;DHT22;32202;48.780;9.204;2022-09-02T13:37:41;36.50;30.40
46488;DHT22;32202;48.780;9.204;2022-09-02T13:40:18;36.80;30.10
46488;DHT22;32202;48.780;9.204;2022-09-02T13:42:55;38.20;30.00
46488;DHT22;32202;48.780;9.204;2022-09-02T13:45:23;39.70;29.10
46488;DHT22;32202;48.780;9.204;2022-09-02T13:47:54;40.60;28.90
46488;DHT22;32202;48.780;9.204;2022-09-02T13:50:26;41.30;28.70
46488;DHT22;32202;48.780;9.204;2022-09-02T13:53:00;41.70;28.60
46488;DHT22;32202;48.780;9.204;2022-09-02T13:55:27;40.30;28.80
46488;DHT22;32202;48.780;9.204;2022-09-02T13:57:56;39.90;29.10
46488;DHT22;32202;48.780;9.204;2022-09-02T14:00:34;38.30;29.70
46488;DHT22;32202;48.780;9.204;2022-09-02T14:03:06;38.80;29.80
46488;DHT22;32202;48.780;9.204;2022-09-02T14:05:33;37.60;30.00
46488;DHT22;32202;48.780;9.204;2022-09-02T14:08:02;36.50;30.80
46488;DHT22;32202;48.780;9.204;2022-09-02T14:10:30;34.90;31.30
46488;DHT22;32202;48.780;9.204;2022-09-02T14:13:00;33.90;32.50
46488;DHT22;32202;48.780;9.204;2022-09-02T14:15:29;33.60;32.80
46488;DHT22;32202;48.780;9.204;2022-09-02T14:18:15;33.80;32.90
46488;DHT22;32202;48.780;9.204;2022-09-02T14:21:08;34.20;32.80
46488;DHT22;32202;48.780;9.204;2022-09-02T14:23:47;34.00;32.90
46488;DHT22;32202;48.780;9.204;2022-09-02T14:26:20;32.50;34.30
46488;DHT22;32202;48.780;9.204;2022-09-02T14:28:50;33.10;33.80
46488;DHT22;32202;48.780;9.204;2022-09-02T14:31:25;33.00;34.00
46488;DHT22;32202;48.780;9.204;2022-09-02T14:33:55;33.60;33.70
46488;DHT22;32202;48.780;9.204;2022-09-02T14:38:52;33.50;33.30
46488;DHT22;32202;48.780;9.204;2022-09-02T14:41:53;33.10;33.50
46488;DHT22;32202;48.780;9.204;2022-09-02T14:44:31;32.20;34.50
46488;DHT22;32202;48.780;9.204;2022-09-02T14:47:02;31.80;34.80
46488;DHT22;32202;48.780;9.204;2022-09-02T14:49:36;31.50;35.50
46488;DHT22;32202;48.780;9.204;2022-09-02T14:52:19;30.50;36.00
46488;DHT22;32202;48.780;9.204;2022-09-02T14:54:47;29.70;36.70
46488;DHT22;32202;48.780;9.204;2022-09-02T14:57:21;29.10;37.40
46488;DHT22;32202;48.780;9.204;2022-09-02T14:59:48;28.60;37.80
46488;DHT22;32202;48.780;9.204;2022-09-02T15:05:01;28.30;38.60
46488;DHT22;32202;48.780;9.204;2022-09-02T15:07:29;28.10;39.10
46488;DHT22;32202;48.780;9.204;2022-09-02T15:09:55;27.70;39.40
46488;DHT22;32202;48.780;9.204;2022-09-02T15:12:23;27.70;39.50
46488;DHT22;32202;48.780;9.204;2022-09-02T15:14:51;27.30;40.20
46488;DHT22;32202;48.780;9.204;2022-09-02T15:17:17;27.10;40.10
46488;DHT22;32202;48.780;9.204;2022-09-02T15:19:44;27.20;40.50
46488;DHT22;32202;48.780;9.204;2022-09-02T15:22:09;27.40;40.50
46488;DHT22;32202;48.780;9.204;2022-09-02T15:24:35;27.50;39.90
46488;DHT22;32202;48.780;9.204;2022-09-02T15:27:01;27.60;40.00
46488;DHT22;32202;48.780;9.204;2022-09-02T15:29:28;27.70;39.70
46488;DHT22;32202;48.780;9.204;2022-09-02T15:31:54;27.80;39.50
46488;DHT22;32202;48.780;9.204;2022-09-02T15:34:26;27.70;39.90
46488;DHT22;32202;48.780;9.204;2022-09-02T15:36:51;27.60;39.90
46488;DHT22;32202;48.780;9.204;2022-09-02T15:39:19;27.60;39.70
46488;DHT22;32202;48.780;9.204;2022-09-02T15:41:45;27.50;39.70
46488;DHT22;32202;48.780;9.204;2022-09-02T15:44:11;27.30;40.10
46488;DHT22;32202;48.780;9.204;2022-09-02T15:46:37;27.30;40.00
46488;DHT22;32202;48.780;9.204;2022-09-02T15:49:06;27.20;40.20
46488;DHT22;32202;48.780;9.204;2022-09-02T15:51:32;27.10;40.40
46488;DHT22;32202;48.780;9.204;2022-09-02T15:54:07;26.90;40.50
46488;DHT22;32202;48.780;9.204;2022-09-02T15:56:35;26.60;40.80
46488;DHT22;32202;48.780;9.204;2022-09-02T15:59:04;26.40;41.30
46488;DHT22;32202;48.780;9.204;2022-09-02T16:01:38;26.40;41.30
46488;DHT22;32202;48.780;9.204;2022-09-02T16:04:05;26.20;41.40
46488;DHT22;32202;48.780;9.204;2022-09-02T16:06:33;26.30;41.70
46488;DHT22;32202;48.780;9.204;2022-09-02T16:09:01;26.40;41.60
46488;DHT22;32202;48.780;9.204;2022-09-02T16:11:29;26.40;41.40
46488;DHT22;32202;48.780;9.204;2022-09-02T16:13:55;26.30;41.20
46488;DHT22;32202;48.780;9.204;2022-09-02T16:16:21;26.20;41.50
46488;DHT22;32202;48.780;9.204;2022-09-02T16:18:52;26.10;41.60
46488;DHT22;32202;48.780;9.204;2022-09-02T16:21:19;26.10;41.60
46488;DHT22;32202;48.780;9.204;2022-09-02T16:23:46;26.10;41.50
46488;DHT22;32202;48.780;9.204;2022-09-02T16:28:49;26.10;41.40
46488;DHT22;32202;48.780;9.204;2022-09-02T16:31:17;25.90;41.70
46488;DHT22;32202;48.780;9.204;2022-09-02T16:33:50;25.60;42.00
46488;DHT22;32202;48.780;9.204;2022-09-02T16:36:16;25.60;42.20
46488;DHT22;32202;48.780;9.204;2022-09-02T16:38:42;25.60;42.30
46488;DHT22;32202;48.780;9.204;2022-09-02T16:41:21;25.60;42.40
46488;DHT22;32202;48.780;9.204;2022-09-02T16:43:47;25.50;42.40
46488;DHT22;32202;48.780;9.204;2022-09-02T16:46:13;25.40;42.10
46488;DHT22;32202;48.780;9.204;2022-09-02T16:48:39;25.30;42.60
46488;DHT22;32202;48.780;9.204;2022-09-02T16:51:04;25.30;42.60
46488;DHT22;32202;48.780;9.204;2022-09-02T16:53:31;25.30;42.80
46488;DHT22;32202;48.780;9.204;2022-09-02T16:55:57;25.30;43.10
46488;DHT22;32202;48.780;9.204;2022-09-02T16:58:23;25.30;42.90
46488;DHT22;32202;48.780;9.204;2022-09-02T17:00:49;25.30;42.90
46488;DHT22;32202;48.780;9.204;2022-09-02T17:03:15;25.30;42.80
46488;DHT22;32202;48.780;9.204;2022-09-02T17:05:41;25.20;43.00
46488;DHT22;32202;48.780;9.204;2022-09-02T17:08:07;25.20;43.10
46488;DHT22;32202;48.780;9.204;2022-09-02T17:10:34;25.20;43.30
46488;DHT22;32202;48.780;9.204;2022-09-02T17:13:00;25.10;43.30
46488;DHT22;32202;48.780;9.204;2022-09-02T17:15:27;25.10;43.60
46488;DHT22;32202;48.780;9.204;2022-09-02T17:17:54;25.10;43.60
46488;DHT22;32202;48.780;9.204;2022-09-02T17:20:21;25.00;43.30
46488;DHT22;32202;48.780;9.204;2022-09-02T17:22:48;24.90;43.60
46488;DHT22;32202;48.780;9.204;2022-09-02T17:25:14;24.70;43.90
46488;DHT22;32202;48.780;9.204;2022-09-02T17:27:40;24.60;44.30
46488;DHT22;32202;48.780;9.204;2022-09-02T17:30:07;24.40;44.60
46488;DHT22;32202;48.780;9.204;2022-09-02T17:32:39;24.40;44.90
46488;DHT22;32202;48.780;9.204;2022-09-02T17:35:09;24.30;45.20
46488;DHT22;32202;48.780;9.204;2022-09-02T17:37:35;24.20;45.10
46488;DHT22;32202;48.780;9.204;2022-09-02T17:40:04;24.10;45.40
46488;DHT22;32202;48.780;9.204;2022-09-02T17:42:31;23.90;45.60
46488;DHT22;32202;48.780;9.204;2022-09-02T17:44:56;23.80;46.00
46488;DHT22;32202;48.780;9.204;2022-09-02T17:47:23;23.70;46.30
46488;DHT22;32202;48.780;9.204;2022-09-02T17:49:49;23.50;46.40
46488;DHT22;32202;48.780;9.204;2022-09-02T17:52:21;23.50;46.80